Time;durP1;ratioP1;P1;durP2;ratioP2;P2;SDS_P1;SDS_P2;PMS_P1;PMS_P2;Temp;Humidity;BMP_temperature;BMP_pressure;BME280_temperature;BME280_humidity;BME280_pressure;Samples;Min_cycle;Max_cycle;Signal;HPM_P1;HPM_P2
2022/01/04 00:01:28;;;;;;;7.72;5.40;;;21.40;75.20;;;;;;7806783;28;20170;-55
2022/01/04 00:05:14;;;;;;;11.00;5.90;;;21.40;75.20;;;;;;7806553;28;20237;-54
2022/01/04 00:09:02;;;;;;;9.15;5.60;;;21.40;75.20;;;;;;7806428;28;20612;-55
2022/01/04 00:16:55;;;;;;;10.73;5.53;;;21.30;75.30;;;;;;7806913;28;20234;-53
2022/01/04 00:20:40;;;;;;;8.05;5.28;;;21.30;75.20;;;;;;7805956;28;20218;-51
2022/01/04 00:24:26;;;;;;;7.53;5.30;;;21.30;75.20;;;;;;7809045;28;20186;-55
2022/01/04 00:28:12;;;;;;;11.93;5.90;;;21.30;75.20;;;;;;7811511;28;20201;-52
2022/01/04 00:31:57;;;;;;;8.43;5.90;;;21.30;75.20;;;;;;7812248;28;20186;-52
2022/01/04 00:35:44;;;;;;;9.00;5.30;;;21.20;75.10;;;;;;7812280;28;20635;-52
2022/01/04 00:39:29;;;;;;;7.43;5.53;;;21.20;75.10;;;;;;7811957;28;20256;-53
2022/01/04 00:43:15;;;;;;;8.73;5.72;;;21.20;75.10;;;;;;7812276;28;20179;-52
2022/01/04 00:47:00;;;;;;;9.52;5.10;;;21.20;75.10;;;;;;7811938;28;20197;-54
2022/01/04 00:50:46;;;;;;;7.63;5.78;;;21.20;75.10;;;;;;7811150;28;20202;-51
2022/01/04 00:54:34;;;;;;;8.00;5.45;;;21.10;75.10;;;;;;7811603;28;20190;-51
2022/01/04 00:58:19;;;;;;;6.30;4.85;;;21.10;75.10;;;;;;7810652;28;20222;-53
2022/01/04 01:02:05;;;;;;;7.75;5.15;;;21.10;75.20;;;;;;7811438;28;20179;-54
2022/01/04 01:05:50;;;;;;;7.63;4.88;;;21.10;75.10;;;;;;7811217;28;20281;-51
2022/01/04 01:09:45;;;;;;;6.78;5.03;;;21.00;75.10;;;;;;7810534;28;20170;-55
2022/01/04 01:13:30;;;;;;;6.55;4.72;;;21.00;75.00;;;;;;7811065;28;20171;-52
2022/01/04 01:17:16;;;;;;;6.88;4.60;;;21.10;75.10;;;;;;7810654;28;20217;-56
2022/01/04 01:21:03;;;;;;;8.40;4.90;;;21.00;75.00;;;;;;7810040;28;20289;-53
2022/01/04 01:24:48;;;;;;;5.55;4.57;;;21.00;75.00;;;;;;7810618;28;20258;-55
2022/01/04 01:28:35;;;;;;;6.03;4.40;;;21.00;75.00;;;;;;7809872;28;20237;-55
2022/01/04 01:32:20;;;;;;;5.43;4.32;;;21.00;75.00;;;;;;7808966;28;20652;-55
2022/01/04 01:36:06;;;;;;;5.75;4.00;;;21.00;75.00;;;;;;7810095;28;20203;-53
2022/01/04 01:39:52;;;;;;;7.15;4.53;;;20.90;75.00;;;;;;7809571;28;20199;-53
2022/01/04 01:43:37;;;;;;;6.68;4.40;;;20.90;74.90;;;;;;7810232;28;20174;-54
2022/01/04 01:47:23;;;;;;;5.90;4.30;;;20.90;74.90;;;;;;7810069;28;20198;-53
2022/01/04 01:51:08;;;;;;;5.47;4.07;;;20.90;74.90;;;;;;7809437;28;20175;-55
2022/01/04 01:54:54;;;;;;;5.80;4.13;;;20.90;74.90;;;;;;7809973;28;20187;-55
2022/01/04 01:58:39;;;;;;;5.32;3.78;;;20.90;75.00;;;;;;7809359;28;20202;-55
2022/01/04 02:02:25;;;;;;;5.20;3.90;;;20.90;75.00;;;;;;7809862;28;20178;-54
2022/01/04 02:06:10;;;;;;;5.30;3.97;;;20.80;75.00;;;;;;7809766;28;20660;-55
2022/01/04 02:10:04;;;;;;;5.15;3.80;;;20.90;75.00;;;;;;7809169;28;20708;-56
2022/01/04 02:13:50;;;;;;;4.28;3.38;;;20.80;75.00;;;;;;7809991;28;20194;-55
2022/01/04 02:17:35;;;;;;;4.40;3.67;;;20.80;75.00;;;;;;7808538;28;20214;-51
2022/01/04 02:21:21;;;;;;;4.32;3.40;;;20.80;75.10;;;;;;7809062;28;20179;-52
2022/01/04 02:25:07;;;;;;;5.28;3.10;;;20.80;75.00;;;;;;7809135;28;20293;-51
2022/01/04 02:28:52;;;;;;;3.97;3.20;;;20.80;75.10;;;;;;7808446;28;20174;-51
2022/01/04 02:32:38;;;;;;;3.80;2.83;;;20.80;75.00;;;;;;7808816;28;20179;-51
2022/01/04 02:36:23;;;;;;;2.90;2.38;;;20.70;75.00;;;;;;7808524;28;20202;-51
2022/01/04 02:40:10;;;;;;;3.15;2.28;;;20.70;75.00;;;;;;7807569;28;20558;-52
2022/01/04 02:43:56;;;;;;;3.35;2.63;;;20.70;75.80;;;;;;7808402;28;20262;-51
2022/01/04 02:47:41;;;;;;;3.08;2.40;;;20.70;74.80;;;;;;7806989;28;20835;-52
2022/01/04 02:51:27;;;;;;;2.58;2.35;;;20.60;74.80;;;;;;7808260;28;20178;-52
2022/01/04 02:55:15;;;;;;;2.30;2.10;;;20.60;74.60;;;;;;7808036;28;20202;-52
2022/01/04 02:59:03;;;;;;;3.50;2.10;;;20.60;74.70;;;;;;7807341;28;20199;-51
2022/01/04 03:02:49;;;;;;;2.88;1.85;;;20.60;74.70;;;;;;7807929;28;20519;-52
2022/01/04 03:06:36;;;;;;;2.28;1.92;;;20.60;74.60;;;;;;7807719;28;20618;-52
2022/01/04 03:10:21;;;;;;;2.60;2.00;;;20.60;74.60;;;;;;7807012;28;20183;-52
2022/01/04 03:14:07;;;;;;;3.67;2.42;;;20.50;74.60;;;;;;7807682;28;20190;-51
2022/01/04 03:17:52;;;;;;;3.72;1.80;;;20.50;74.50;;;;;;7806693;28;20217;-54
2022/01/04 03:21:41;;;;;;;1.67;1.58;;;20.50;74.60;;;;;;7807402;28;20202;-54
2022/01/04 03:25:27;;;;;;;4.13;2.22;;;20.50;74.70;;;;;;7807208;28;20193;-55
2022/01/04 03:29:14;;;;;;;4.15;1.80;;;20.50;74.60;;;;;;7806774;28;20175;-54
2022/01/04 03:33:01;;;;;;;2.72;1.77;;;20.50;74.70;;;;;;7807271;28;20190;-55
2022/01/04 03:36:46;;;;;;;2.67;1.92;;;20.50;74.70;;;;;;7807175;28;20766;-54
2022/01/04 03:40:32;;;;;;;1.92;1.63;;;20.40;74.70;;;;;;7806451;28;20605;-54
2022/01/04 03:44:20;;;;;;;2.15;1.70;;;20.50;74.70;;;;;;7807246;28;20257;-52
2022/01/04 03:48:06;;;;;;;1.90;1.52;;;20.50;74.70;;;;;;7806862;28;20209;-52
2022/01/04 03:51:51;;;;;;;2.25;1.40;;;20.40;74.70;;;;;;7807681;28;20186;-55
2022/01/04 03:55:37;;;;;;;1.48;1.38;;;20.40;74.60;;;;;;7807386;28;20252;-55
2022/01/04 03:59:22;;;;;;;1.80;1.58;;;20.40;74.70;;;;;;7811117;28;20554;-53
2022/01/04 04:03:09;;;;;;;3.17;1.13;;;20.40;74.70;;;;;;7813401;28;20220;-55
2022/01/04 04:06:54;;;;;;;1.98;1.42;;;20.40;74.60;;;;;;7813031;28;20268;-55
2022/01/04 04:10:40;;;;;;;1.40;1.30;;;20.40;74.60;;;;;;7812224;28;20174;-56
2022/01/04 04:14:25;;;;;;;2.45;1.40;;;20.40;74.60;;;;;;7812790;28;20186;-56
2022/01/04 04:18:11;;;;;;;2.03;1.10;;;20.40;74.70;;;;;;7811968;28;20229;-54
2022/01/04 04:21:56;;;;;;;1.83;1.30;;;20.30;74.60;;;;;;7812589;28;20221;-52
2022/01/04 04:25:42;;;;;;;1.85;1.23;;;20.30;74.50;;;;;;7812845;28;20194;-54
2022/01/04 04:29:27;;;;;;;2.60;1.20;;;20.30;74.60;;;;;;7811701;28;20183;-51
2022/01/04 04:33:13;;;;;;;1.63;1.20;;;20.30;74.50;;;;;;7812255;28;20183;-53
2022/01/04 04:36:59;;;;;;;2.78;1.23;;;20.30;74.50;;;;;;7811971;28;20194;-53
2022/01/04 04:40:44;;;;;;;1.30;1.00;;;20.30;74.50;;;;;;7811252;28;20565;-51
2022/01/04 04:44:30;;;;;;;1.15;1.08;;;20.30;74.50;;;;;;7811807;28;20175;-51
2022/01/04 04:48:15;;;;;;;1.15;1.05;;;20.30;74.50;;;;;;7810952;28;20199;-51
2022/01/04 04:52:01;;;;;;;2.47;1.13;;;20.30;74.60;;;;;;7811780;28;20179;-50
2022/01/04 04:55:47;;;;;;;1.10;1.00;;;20.30;74.60;;;;;;7811526;28;20230;-51
2022/01/04 04:59:32;;;;;;;1.75;0.90;;;20.30;74.60;;;;;;7810615;28;20207;-51
2022/01/04 05:03:18;;;;;;;1.80;1.00;;;20.30;74.60;;;;;;7811364;28;20229;-51
2022/01/04 05:07:04;;;;;;;1.20;1.10;;;20.30;74.60;;;;;;7811253;28;20316;-55
2022/01/04 05:10:49;;;;;;;1.17;1.00;;;20.20;74.50;;;;;;7809847;28;20616;-53
2022/01/04 05:14:37;;;;;;;0.98;0.88;;;20.20;74.60;;;;;;7811073;28;20201;-55
2022/01/04 05:18:22;;;;;;;3.33;0.80;;;20.20;74.60;;;;;;7810091;28;20244;-51
2022/01/04 05:22:08;;;;;;;0.98;0.88;;;20.20;74.60;;;;;;7810964;28;20175;-54
2022/01/04 05:25:53;;;;;;;0.93;0.80;;;20.20;74.80;;;;;;7810757;28;20193;-54
2022/01/04 05:29:39;;;;;;;4.70;0.95;;;20.20;74.80;;;;;;7810045;28;20214;-51
2022/01/04 05:33:25;;;;;;;7.45;1.40;;;20.20;74.80;;;;;;7811155;28;20282;-51
2022/01/04 05:37:10;;;;;;;8.57;1.40;;;20.20;74.80;;;;;;7810583;28;20194;-51
2022/01/04 05:40:56;;;;;;;5.90;1.35;;;20.20;74.80;;;;;;7809660;28;20557;-53
2022/01/04 05:44:41;;;;;;;9.82;1.85;;;20.20;74.80;;;;;;7810086;28;20554;-51
2022/01/04 05:48:27;;;;;;;8.55;1.73;;;20.20;74.50;;;;;;7807120;28;20190;-55
2022/01/04 05:52:12;;;;;;;5.57;1.42;;;20.10;74.60;;;;;;7807609;28;20182;-51
2022/01/04 05:55:58;;;;;;;18.77;2.40;;;20.20;74.70;;;;;;7809402;28;20202;-52
2022/01/04 05:59:44;;;;;;;10.05;2.00;;;20.10;74.80;;;;;;7809210;28;20218;-54
2022/01/04 06:03:29;;;;;;;12.45;2.28;;;20.20;74.90;;;;;;7809312;28;20174;-51
2022/01/04 06:07:14;;;;;;;15.30;2.40;;;20.20;74.90;;;;;;7809442;28;20807;-52
2022/01/04 06:11:01;;;;;;;16.85;2.42;;;20.20;75.20;;;;;;7809256;28;20185;-53
2022/01/04 06:14:52;;;;;;;9.55;2.00;;;20.20;75.20;;;;;;7808927;28;20546;-53
2022/01/04 06:18:41;;;;;;;19.70;2.70;;;20.20;75.00;;;;;;7808959;28;20791;-50
2022/01/04 06:22:28;;;;;;;14.82;2.53;;;20.10;74.90;;;;;;7808183;28;20178;-52
2022/01/04 06:26:14;;;;;;;20.40;2.47;;;20.10;74.90;;;;;;7808040;28;20199;-51
2022/01/04 06:29:59;;;;;;;18.50;2.97;;;20.10;74.90;;;;;;7804321;28;20289;-52
2022/01/04 06:33:45;;;;;;;16.30;2.50;;;20.10;75.10;;;;;;7808439;28;20244;-51
2022/01/04 06:37:32;;;;;;;9.13;2.67;;;20.10;75.10;;;;;;7807601;28;20317;-51
2022/01/04 06:41:17;;;;;;;13.52;3.08;;;20.10;75.10;;;;;;7807257;28;20206;-54
2022/01/04 06:45:04;;;;;;;17.40;2.70;;;20.10;75.00;;;;;;7807660;28;20278;-51
2022/01/04 06:48:50;;;;;;;12.80;2.72;;;20.10;74.90;;;;;;7807267;28;20174;-54
2022/01/04 06:52:35;;;;;;;9.50;1.90;;;20.10;75.00;;;;;;7807137;28;20221;-52
2022/01/04 06:56:21;;;;;;;9.38;2.42;;;20.10;75.10;;;;;;7807369;28;20212;-51
2022/01/04 07:00:07;;;;;;;7.47;1.90;;;20.00;75.00;;;;;;7806546;28;20257;-54
2022/01/04 07:03:53;;;;;;;11.25;1.90;;;20.00;74.90;;;;;;7807154;28;20229;-50
2022/01/04 07:07:38;;;;;;;14.02;2.08;;;20.00;75.00;;;;;;7807355;28;20194;-52
2022/01/04 07:11:24;;;;;;;20.25;2.35;;;20.10;75.10;;;;;;7807875;28;20194;-52
2022/01/04 07:15:09;;;;;;;8.30;1.92;;;20.10;75.00;;;;;;7807491;28;20210;-52
2022/01/04 07:18:55;;;;;;;9.23;1.85;;;20.10;75.10;;;;;;7807193;28;20209;-51
2022/01/04 07:22:40;;;;;;;5.60;1.70;;;20.00;74.90;;;;;;7807494;28;20171;-52
2022/01/04 07:26:27;;;;;;;8.25;2.13;;;20.00;74.90;;;;;;7807365;28;20202;-53
2022/01/04 07:30:13;;;;;;;7.35;2.05;;;20.00;75.00;;;;;;7806739;28;20220;-55
2022/01/04 07:33:58;;;;;;;7.78;1.70;;;20.00;75.10;;;;;;7806391;28;20269;-52
2022/01/04 07:37:44;;;;;;;8.93;1.80;;;20.00;75.10;;;;;;7806939;28;20245;-52
2022/01/04 07:41:30;;;;;;;6.57;1.60;;;20.00;75.00;;;;;;7807174;28;20170;-56
2022/01/04 07:45:16;;;;;;;2.97;1.45;;;20.00;75.10;;;;;;7806927;28;20210;-53
2022/01/04 07:49:01;;;;;;;7.88;1.50;;;20.00;75.00;;;;;;7806901;28;20174;-52
2022/01/04 07:52:47;;;;;;;7.03;1.77;;;20.00;75.00;;;;;;7807174;28;20697;-53
2022/01/04 07:56:32;;;;;;;3.63;1.50;;;20.00;75.10;;;;;;7807016;28;20199;-52
2022/01/04 08:00:20;;;;;;;7.07;1.42;;;20.00;75.00;;;;;;7807066;28;20210;-51
2022/01/04 08:04:06;;;;;;;4.38;1.25;;;20.00;75.10;;;;;;7807026;28;20193;-55
2022/01/04 08:07:51;;;;;;;4.93;1.27;;;20.00;75.10;;;;;;7806450;28;20194;-51
2022/01/04 08:11:37;;;;;;;5.28;1.20;;;20.00;75.10;;;;;;7806730;28;20179;-51
2022/01/04 08:15:23;;;;;;;2.78;1.25;;;20.00;75.10;;;;;;7806501;28;20280;-53
2022/01/04 08:19:08;;;;;;;3.75;1.30;;;19.90;75.00;;;;;;7806338;28;20195;-52
2022/01/04 08:22:54;;;;;;;3.83;1.25;;;19.90;75.10;;;;;;7806611;28;20699;-53
2022/01/04 08:26:40;;;;;;;4.43;1.33;;;19.90;75.00;;;;;;7806504;28;20203;-51
2022/01/04 08:30:25;;;;;;;1.95;1.20;;;19.90;75.00;;;;;;7806097;28;20182;-52
2022/01/04 08:34:11;;;;;;;2.13;1.50;;;19.90;75.00;;;;;;7806227;28;20187;-55
2022/01/04 08:37:56;;;;;;;7.68;1.80;;;19.90;75.00;;;;;;7806040;28;20207;-51
2022/01/04 08:41:42;;;;;;;8.73;1.30;;;19.90;75.00;;;;;;7806318;28;20183;-53
2022/01/04 08:45:28;;;;;;;4.85;1.52;;;19.90;75.00;;;;;;7808720;28;20198;-50
2022/01/04 08:49:14;;;;;;;2.17;1.52;;;19.80;73.40;;;;;;7811709;28;20258;-53
2022/01/04 08:52:59;;;;;;;2.97;1.30;;;19.80;74.10;;;;;;7811799;28;20185;-52
2022/01/04 08:56:45;;;;;;;9.63;2.17;;;19.80;74.60;;;;;;7811612;28;20560;-55
2022/01/04 09:00:30;;;;;;;6.70;1.83;;;19.80;74.90;;;;;;7811228;28;20217;-51
2022/01/04 09:04:16;;;;;;;1.90;1.42;;;19.80;75.00;;;;;;7811990;28;20189;-51
2022/01/04 09:08:01;;;;;;;3.50;1.48;;;19.90;75.00;;;;;;7811672;28;20237;-53
2022/01/04 09:11:47;;;;;;;8.38;1.70;;;19.80;75.00;;;;;;7811356;28;20182;-54
2022/01/04 09:15:46;;;;;;;1.80;1.30;;;19.80;75.00;;;;;;7810845;28;20551;-50
2022/01/04 09:19:32;;;;;;;4.50;1.45;;;19.80;75.00;;;;;;7810675;28;20240;-54
2022/01/04 09:23:20;;;;;;;3.58;1.58;;;19.80;75.00;;;;;;7810713;28;20269;-54
2022/01/04 09:27:06;;;;;;;2.13;1.58;;;19.80;75.00;;;;;;7810884;28;20230;-54
2022/01/04 09:30:52;;;;;;;1.88;1.35;;;19.80;75.00;;;;;;7810718;28;20183;-51
2022/01/04 09:34:37;;;;;;;2.50;1.48;;;19.80;75.00;;;;;;7810425;28;20179;-51
2022/01/04 09:38:23;;;;;;;5.07;1.38;;;19.80;75.00;;;;;;7810199;28;20202;-54
2022/01/04 09:42:09;;;;;;;2.03;1.60;;;19.80;75.00;;;;;;7810461;28;20244;-52
2022/01/04 09:45:54;;;;;;;1.98;1.30;;;19.80;75.00;;;;;;7810143;28;20195;-53
2022/01/04 09:49:40;;;;;;;1.60;1.20;;;19.90;75.00;;;;;;7810028;28;20573;-54
2022/01/04 09:53:26;;;;;;;2.63;1.17;;;19.80;75.00;;;;;;7810046;28;20190;-54
2022/01/04 09:57:15;;;;;;;2.13;1.45;;;19.80;74.90;;;;;;7809792;28;20688;-55
2022/01/04 10:01:01;;;;;;;1.83;1.02;;;19.80;74.90;;;;;;7809456;28;20238;-53
2022/01/04 10:04:47;;;;;;;4.25;1.40;;;19.80;74.90;;;;;;7809724;28;20194;-55
2022/01/04 10:08:47;;;;;;;4.13;1.60;;;19.80;75.00;;;;;;7809907;28;20175;-52
2022/01/04 10:12:59;;;;;;;4.78;1.70;;;19.80;75.10;;;;;;7809423;28;20190;-55
2022/01/04 10:17:14;;;;;;;2.95;1.73;;;19.80;75.10;;;;;;7809331;28;20225;-57
2022/01/04 10:21:01;;;;;;;14.80;2.20;;;19.80;75.20;;;;;;7806473;28;20250;-53
2022/01/04 10:25:19;;;;;;;13.98;2.30;;;19.90;75.20;;;;;;7808822;28;20187;-53
2022/01/04 10:29:22;;;;;;;14.25;2.38;;;19.80;75.50;;;;;;7683536;29;20200;-58
2022/01/04 10:33:12;;;;;;;7.50;1.67;;;19.90;76.00;;;;;;7683846;29;20200;-54
2022/01/04 10:36:58;;;;;;;22.58;2.60;;;19.90;75.80;;;;;;7684252;29;20305;-53
2022/01/04 10:40:47;;;;;;;17.83;1.98;;;19.90;75.50;;;;;;7683800;29;20217;-54
2022/01/04 10:44:33;;;;;;;24.33;2.58;;;19.90;75.40;;;;;;7683898;29;20193;-51
2022/01/04 10:48:21;;;;;;;5.75;2.03;;;20.00;75.70;;;;;;7683785;29;20729;-51
2022/01/04 10:52:09;;;;;;;7.20;1.65;;;19.90;74.60;;;;;;7683594;29;20251;-51
2022/01/04 10:56:06;;;;;;;6.65;1.67;;;19.90;75.00;;;;;;7683720;29;20201;-52
2022/01/04 10:59:51;;;;;;;11.13;2.03;;;19.90;75.00;;;;;;7682827;29;20576;-52
2022/01/04 11:03:41;;;;;;;6.53;1.60;;;19.80;75.00;;;;;;7706366;28;20218;-53
2022/01/04 11:07:27;;;;;;;7.65;2.22;;;19.90;75.20;;;;;;7807145;28;20546;-55
2022/01/04 11:11:13;;;;;;;6.03;1.25;;;19.80;75.00;;;;;;7807954;28;20178;-51
2022/01/04 11:14:58;;;;;;;5.78;2.00;;;19.90;75.10;;;;;;7807338;28;20178;-59
2022/01/04 11:18:49;;;;;;;10.55;1.70;;;19.80;75.10;;;;;;7807442;28;20209;-52
2022/01/04 11:22:37;;;;;;;7.30;1.77;;;19.90;75.30;;;;;;7807722;28;20177;-52
2022/01/04 11:26:24;;;;;;;7.03;1.60;;;19.80;75.00;;;;;;7807300;28;20198;-52
2022/01/04 11:30:21;;;;;;;3.78;1.70;;;19.80;75.00;;;;;;7806758;28;20183;-52
2022/01/04 11:34:06;;;;;;;8.50;2.20;;;19.80;75.10;;;;;;7807337;28;20268;-54
2022/01/04 11:37:55;;;;;;;5.50;1.42;;;19.80;75.10;;;;;;7806909;28;20248;-52
2022/01/04 11:41:42;;;;;;;17.17;1.90;;;19.80;75.10;;;;;;7806980;28;20182;-51
2022/01/04 11:45:46;;;;;;;12.30;1.98;;;19.80;75.10;;;;;;7807090;28;20278;-54
2022/01/04 11:49:34;;;;;;;7.97;1.70;;;19.80;75.20;;;;;;7807015;28;20178;-56
2022/01/04 11:53:20;;;;;;;5.18;1.60;;;19.80;75.20;;;;;;7807019;28;20545;-51
2022/01/04 11:57:27;;;;;;;10.90;1.38;;;19.80;75.20;;;;;;7807008;28;20283;-54
2022/01/04 12:01:16;;;;;;;13.18;2.60;;;19.80;75.20;;;;;;7807009;28;20645;-51
2022/01/04 12:05:21;;;;;;;3.10;1.27;;;19.80;75.30;;;;;;7807055;28;20269;-54
2022/01/04 12:09:25;;;;;;;3.55;1.30;;;19.80;75.40;;;;;;7807224;28;20232;-55
2022/01/04 12:13:18;;;;;;;6.93;1.60;;;19.70;75.30;;;;;;7806771;28;20177;-54
2022/01/04 12:17:05;;;;;;;6.55;1.30;;;19.80;75.30;;;;;;7806412;28;20214;-53
2022/01/04 12:20:52;;;;;;;5.28;1.33;;;19.80;75.30;;;;;;7809755;28;20206;-57
2022/01/04 12:24:43;;;;;;;5.18;1.50;;;19.80;75.30;;;;;;7812788;28;20178;-57
2022/01/04 12:28:58;;;;;;;5.25;1.23;;;19.80;75.50;;;;;;7812223;28;20178;-56
2022/01/04 12:32:43;;;;;;;3.97;1.25;;;19.70;75.40;;;;;;7812422;28;20565;-56
2022/01/04 12:36:45;;;;;;;3.70;1.20;;;19.70;75.50;;;;;;7812281;28;20245;-57
2022/01/04 12:40:30;;;;;;;2.63;1.20;;;19.70;75.50;;;;;;7812042;28;20217;-55
2022/01/04 12:44:26;;;;;;;4.40;1.25;;;19.70;75.50;;;;;;7812237;28;20221;-54
2022/01/04 12:48:11;;;;;;;4.18;1.30;;;19.70;75.60;;;;;;7811740;28;20193;-55
2022/01/04 12:51:59;;;;;;;5.95;1.20;;;19.70;75.60;;;;;;7811872;28;20205;-56
2022/01/04 12:56:01;;;;;;;2.70;1.67;;;19.70;75.50;;;;;;7811678;28;20256;-53
2022/01/04 12:59:55;;;;;;;3.45;1.42;;;19.60;75.60;;;;;;7811465;28;21073;-55
2022/01/04 13:03:41;;;;;;;4.13;1.40;;;19.60;75.50;;;;;;7811845;28;20175;-55
2022/01/04 13:07:32;;;;;;;1.45;1.27;;;19.60;75.50;;;;;;7811532;28;20187;-53
2022/01/04 13:11:19;;;;;;;4.65;1.20;;;19.60;75.60;;;;;;7811253;28;20232;-56
2022/01/04 13:15:05;;;;;;;6.50;1.30;;;19.60;75.60;;;;;;7811040;28;20767;-53
2022/01/04 13:18:52;;;;;;;4.38;1.25;;;19.60;75.70;;;;;;7810848;28;20198;-55
2022/01/04 13:22:37;;;;;;;5.75;1.38;;;19.60;75.70;;;;;;7810872;28;20587;-56
2022/01/04 13:26:26;;;;;;;2.40;1.10;;;19.60;75.70;;;;;;7810887;28;20217;-55
2022/01/04 13:30:19;;;;;;;3.22;1.33;;;19.60;75.70;;;;;;7810050;28;20559;-55
2022/01/04 13:34:04;;;;;;;2.50;1.00;;;19.60;75.70;;;;;;7810518;28;20170;-54
2022/01/04 13:37:53;;;;;;;2.40;1.27;;;19.60;75.70;;;;;;7810121;28;20201;-54
2022/01/04 13:41:39;;;;;;;1.75;1.05;;;19.50;75.60;;;;;;7810382;28;20214;-55
2022/01/04 13:45:25;;;;;;;0.80;0.80;;;19.50;75.60;;;;;;7810253;28;20702;-55
2022/01/04 13:49:10;;;;;;;3.35;1.13;;;19.50;75.70;;;;;;7810365;28;20647;-54
2022/01/04 13:53:01;;;;;;;2.00;1.30;;;19.50;75.70;;;;;;7810543;28;20290;-54
2022/01/04 13:56:47;;;;;;;1.50;1.27;;;19.50;75.70;;;;;;7810392;28;20209;-55
2022/01/04 14:00:33;;;;;;;4.65;1.33;;;19.50;75.70;;;;;;7809603;28;20241;-53
2022/01/04 14:04:22;;;;;;;3.55;1.27;;;19.50;75.70;;;;;;7809850;28;20171;-55
2022/01/04 14:08:08;;;;;;;3.90;1.30;;;19.60;75.80;;;;;;7809678;28;20296;-53
2022/01/04 14:12:03;;;;;;;4.05;1.65;;;19.50;75.70;;;;;;7809528;28;20171;-55
2022/01/04 14:16:05;;;;;;;4.28;1.55;;;19.50;75.70;;;;;;7809435;28;20210;-52
2022/01/04 14:19:55;;;;;;;4.07;1.50;;;19.50;75.70;;;;;;7809080;28;20214;-57
2022/01/04 14:23:40;;;;;;;9.77;1.77;;;19.50;75.70;;;;;;7809138;28;20254;-54
2022/01/04 14:27:30;;;;;;;3.28;1.80;;;19.50;75.70;;;;;;7808963;28;20851;-55
2022/01/04 14:31:17;;;;;;;2.25;1.70;;;19.50;75.70;;;;;;7809114;28;20241;-54
2022/01/04 14:35:09;;;;;;;1.73;1.48;;;19.50;75.60;;;;;;7808725;28;20202;-55
2022/01/04 14:38:54;;;;;;;3.75;1.50;;;19.60;75.70;;;;;;7808347;28;20258;-56
2022/01/04 14:42:40;;;;;;;2.03;1.48;;;19.50;75.50;;;;;;7807750;28;20179;-56
2022/01/04 14:46:26;;;;;;;2.58;1.80;;;19.60;75.50;;;;;;7808425;28;20832;-53
2022/01/04 14:50:12;;;;;;;1.48;1.25;;;19.50;75.40;;;;;;7808260;28;20233;-55
2022/01/04 14:53:57;;;;;;;1.90;1.30;;;19.50;75.40;;;;;;7808392;28;20877;-56
2022/01/04 14:57:43;;;;;;;7.07;1.20;;;19.50;75.40;;;;;;7807879;28;20218;-53
2022/01/04 15:01:32;;;;;;;1.67;1.30;;;19.60;75.50;;;;;;7807862;28;20210;-52
2022/01/04 15:05:19;;;;;;;2.30;1.20;;;19.50;75.40;;;;;;7807905;28;20203;-55
2022/01/04 15:09:05;;;;;;;3.83;1.35;;;19.50;75.60;;;;;;7807744;28;20648;-51
2022/01/04 15:12:50;;;;;;;6.50;1.30;;;19.50;76.30;;;;;;7807713;28;20174;-51
2022/01/04 15:16:36;;;;;;;6.43;1.52;;;19.50;75.50;;;;;;7807537;28;20221;-51
2022/01/04 15:20:22;;;;;;;9.25;1.40;;;19.60;75.70;;;;;;7807334;28;20228;-53
2022/01/04 15:24:08;;;;;;;15.65;1.45;;;19.60;75.40;;;;;;7807720;28;20205;-51
2022/01/04 15:27:56;;;;;;;12.25;1.92;;;19.60;75.40;;;;;;7807123;28;20225;-54
2022/01/04 15:31:42;;;;;;;14.75;1.92;;;19.60;75.10;;;;;;7807491;28;20254;-54
2022/01/04 15:35:28;;;;;;;10.73;1.83;;;19.60;75.90;;;;;;7807413;28;20256;-54
2022/01/04 15:39:27;;;;;;;10.60;2.15;;;19.70;75.00;;;;;;7806771;28;20206;-52
2022/01/04 15:43:12;;;;;;;8.98;1.80;;;19.70;74.90;;;;;;7807249;28;20186;-53
2022/01/04 15:46:59;;;;;;;9.15;1.67;;;19.70;74.90;;;;;;7806904;28;20194;-51
2022/01/04 15:50:47;;;;;;;2.80;1.80;;;19.80;74.80;;;;;;7804807;28;20869;-54
2022/01/04 15:54:32;;;;;;;6.47;1.67;;;19.80;74.60;;;;;;7806303;28;20273;-55
2022/01/04 15:58:18;;;;;;;8.65;1.50;;;19.80;74.70;;;;;;7799815;28;20213;-53
2022/01/04 16:02:04;;;;;;;22.92;4.63;;;19.90;74.70;;;;;;7809877;28;20179;-56
2022/01/04 16:05:49;;;;;;;31.65;9.23;;;20.00;74.90;;;;;;7810701;28;20287;-54
2022/01/04 16:09:35;;;;;;;35.38;9.23;;;20.00;74.60;;;;;;7812808;28;20187;-55
2022/01/04 16:13:20;;;;;;;36.63;11.15;;;20.10;74.40;;;;;;7813085;28;20182;-56
2022/01/04 16:17:19;;;;;;;44.55;11.88;;;20.10;74.30;;;;;;7812811;28;20271;-56
2022/01/04 16:21:33;;;;;;;26.88;10.10;;;20.10;74.10;;;;;;7812484;28;20243;-54
2022/01/04 16:25:19;;;;;;;44.58;18.05;;;20.20;75.00;;;;;;7812728;28;20205;-54
2022/01/04 16:29:08;;;;;;;44.10;18.38;;;20.20;72.00;;;;;;7812283;28;20261;-56
2022/01/04 16:32:54;;;;;;;51.65;18.23;;;20.20;72.80;;;;;;7812506;28;20588;-57
2022/01/04 16:36:41;;;;;;;41.50;16.65;;;20.30;73.20;;;;;;7812427;28;20268;-56
2022/01/04 16:40:26;;;;;;;38.42;15.68;;;20.30;73.30;;;;;;7812115;28;20748;-56
2022/01/04 16:44:13;;;;;;;40.08;18.17;;;20.40;73.40;;;;;;7812329;28;20574;-57
2022/01/04 16:47:59;;;;;;;47.63;19.15;;;20.50;73.30;;;;;;7811657;28;20203;-54
2022/01/04 16:51:45;;;;;;;41.45;19.15;;;20.60;73.10;;;;;;7811940;28;20171;-57
2022/01/04 16:55:31;;;;;;;43.60;15.80;;;20.70;72.80;;;;;;7811976;28;20285;-52
2022/01/04 16:59:17;;;;;;;49.03;18.65;;;20.80;72.60;;;;;;7810664;28;20210;-52
2022/01/04 17:03:06;;;;;;;32.20;14.70;;;20.90;72.70;;;;;;7810998;28;20174;-53
2022/01/04 17:06:53;;;;;;;34.38;13.43;;;21.10;72.50;;;;;;7810648;28;20720;-51
2022/01/04 17:10:52;;;;;;;43.70;15.85;;;21.20;72.30;;;;;;7811228;28;20174;-53
2022/01/04 17:18:48;;;;;;;43.65;14.77;;;21.40;71.40;;;;;;7804068;28;20215;-54
2022/01/04 17:22:35;;;;;;;37.75;13.35;;;21.40;71.80;;;;;;7780574;28;20179;-52
2022/01/04 17:26:21;;;;;;;29.17;12.93;;;21.50;71.90;;;;;;7780272;28;20291;-52
2022/01/04 17:30:10;;;;;;;25.80;12.02;;;21.70;72.10;;;;;;7803502;28;20187;-54
2022/01/04 17:33:56;;;;;;;26.98;11.48;;;21.80;72.00;;;;;;7810761;28;20233;-54
2022/01/04 17:37:41;;;;;;;24.75;11.40;;;22.00;72.00;;;;;;7810622;28;20234;-56
2022/01/04 17:41:28;;;;;;;21.38;10.88;;;22.20;71.80;;;;;;7811033;28;20209;-52
2022/01/04 17:45:13;;;;;;;19.98;9.85;;;22.40;71.70;;;;;;7810617;28;20245;-56
2022/01/04 17:48:59;;;;;;;21.30;9.98;;;22.50;71.40;;;;;;7810496;28;20646;-55
2022/01/04 17:52:45;;;;;;;20.75;9.88;;;22.70;71.40;;;;;;7810369;28;20186;-53
2022/01/04 17:56:30;;;;;;;17.20;8.80;;;22.90;71.10;;;;;;7810148;28;20207;-55
2022/01/04 18:00:16;;;;;;;17.65;8.95;;;23.00;71.00;;;;;;7809688;28;20245;-55
2022/01/04 18:04:02;;;;;;;15.88;8.23;;;23.20;70.80;;;;;;7809936;28;20632;-54
2022/01/04 18:07:48;;;;;;;14.98;7.15;;;23.30;70.70;;;;;;7809596;28;20222;-56
2022/01/04 18:11:33;;;;;;;16.60;7.25;;;23.40;70.50;;;;;;7809722;28;20178;-55
2022/01/04 18:15:20;;;;;;;12.93;7.10;;;23.50;70.40;;;;;;7809331;28;20627;-52
2022/01/04 18:19:06;;;;;;;14.70;6.90;;;23.50;70.20;;;;;;7809181;28;20217;-55
2022/01/04 18:22:51;;;;;;;11.32;6.80;;;23.60;70.30;;;;;;7809474;28;20636;-53
2022/01/04 18:26:37;;;;;;;12.55;6.15;;;23.60;70.20;;;;;;7809344;28;20214;-54
2022/01/04 18:30:24;;;;;;;9.93;5.90;;;23.60;70.10;;;;;;7808821;28;20684;-56
2022/01/04 18:34:10;;;;;;;17.58;6.47;;;23.60;70.10;;;;;;7808946;28;20681;-55
2022/01/04 18:37:55;;;;;;;13.13;6.20;;;23.60;70.20;;;;;;7808652;28;20722;-55
2022/01/04 18:41:41;;;;;;;10.70;5.50;;;23.50;70.30;;;;;;7808832;28;20202;-53
2022/01/04 18:45:26;;;;;;;12.77;5.82;;;23.50;70.40;;;;;;7808596;28;20213;-55
2022/01/04 18:49:12;;;;;;;8.80;5.30;;;23.40;70.50;;;;;;7808292;28;20665;-56
2022/01/04 18:52:57;;;;;;;6.80;4.78;;;23.40;70.50;;;;;;7808450;28;20193;-56
2022/01/04 18:56:43;;;;;;;9.48;5.03;;;23.30;70.70;;;;;;7808410;28;20201;-56
2022/01/04 19:00:29;;;;;;;9.68;5.22;;;23.30;70.70;;;;;;7807947;28;20210;-52
2022/01/04 19:04:18;;;;;;;10.07;5.07;;;23.30;70.70;;;;;;7808205;28;20259;-54
2022/01/04 19:08:03;;;;;;;19.95;4.78;;;23.30;70.80;;;;;;7807685;28;20693;-54
2022/01/04 19:11:49;;;;;;;18.25;5.40;;;23.10;70.00;;;;;;7808016;28;20708;-52
2022/01/04 19:15:34;;;;;;;20.00;5.25;;;23.00;70.80;;;;;;7807545;28;20260;-56
2022/01/04 19:19:20;;;;;;;18.60;5.32;;;23.00;70.80;;;;;;7802947;28;20198;-54
2022/01/04 19:23:07;;;;;;;15.20;4.70;;;23.00;71.10;;;;;;7806821;28;20265;-51
2022/01/04 19:26:55;;;;;;;12.15;4.50;;;23.00;71.40;;;;;;7807245;28;20198;-52
2022/01/04 19:30:40;;;;;;;18.17;4.85;;;23.00;71.70;;;;;;7806066;28;20710;-56
2022/01/04 19:38:30;;;;;;;26.58;5.40;;;23.00;71.90;;;;;;7806503;28;20178;-52
2022/01/04 19:42:17;;;;;;;23.40;5.55;;;23.10;72.00;;;;;;7806100;28;20186;-52
2022/01/04 19:46:02;;;;;;;11.60;4.45;;;23.20;71.90;;;;;;7806375;28;20213;-57
2022/01/04 19:49:48;;;;;;;18.05;4.70;;;23.40;71.90;;;;;;7805920;28;20179;-54